Terminal Aerodrome Forecast
Issued by NWS

Home | Current Version | Previous Version | Graphics & Text | Print | Product List | Glossary On
Versions: 1 2 3 4 5 6 7 8 9 10 11 12 13 14 15 16 17 18 19 20 21 22 23 24 25 26 27 28 29 30 31 32 33
000
FTUS43 KGRB 301036 AAA
TAFRHI
TAF AMD
KRHI 301036Z 3011/3106 26004KT 2SM BR SKC
      TEMPO 3011/3012 1/4SM FG VV002
     FM301300 26005KT P6SM SCT250
     FM301600 29008KT P6SM SCT250
     FM310100 VRB03KT P6SM SCT090 BKN200=

USA.gov is the U.S. government's official web portal to all federal, state and local government web resources and services.